createdAt,value
2022-09-23T00:02:21.187Z,100678.00
2022-09-23T00:04:54.531Z,100675.00
2022-09-23T00:07:27.811Z,100680.00
2022-09-23T00:10:01.111Z,100678.00
2022-09-23T00:12:35.764Z,100678.00
2022-09-23T00:15:11.216Z,100674.00
2022-09-23T00:17:45.227Z,100676.00
2022-09-23T00:20:18.970Z,100679.00
2022-09-23T00:22:53.373Z,100678.00
2022-09-23T00:25:27.473Z,100679.00
2022-09-23T00:28:03.219Z,100634.00
2022-09-23T00:30:36.961Z,100678.00
2022-09-23T00:33:10.340Z,100677.00
2022-09-23T00:35:43.687Z,100660.00
2022-09-23T00:38:17.216Z,100671.00
2022-09-23T00:40:50.591Z,100651.00
2022-09-23T00:43:42.643Z,100653.00
2022-09-23T00:46:22.142Z,100671.00
2022-09-23T00:49:12.325Z,100671.00
2022-09-23T00:51:54.341Z,100671.00
2022-09-23T00:54:31.062Z,100659.00
2022-09-23T00:57:05.339Z,100655.00
2022-09-23T00:59:40.564Z,100656.00
2022-09-23T01:02:16.350Z,100648.00
2022-09-23T01:04:51.824Z,100633.00
2022-09-23T01:07:27.130Z,100639.00
2022-09-23T01:10:03.018Z,100658.00
2022-09-23T01:12:54.707Z,100656.00
2022-09-23T01:15:44.792Z,100654.00
2022-09-23T01:18:34.808Z,100654.00
2022-09-23T01:21:22.422Z,100649.00
2022-09-23T01:24:26.518Z,100649.00
2022-09-23T01:27:24.224Z,100646.00
2022-09-23T01:30:34.241Z,100644.00
2022-09-23T01:33:17.675Z,100643.00
2022-09-23T01:36:19.007Z,100623.00
2022-09-23T01:39:01.308Z,100622.00
2022-09-23T01:41:53.450Z,100631.00
2022-09-23T01:44:43.027Z,100626.00
2022-09-23T01:47:23.416Z,100631.00
2022-09-23T01:50:03.691Z,100623.00
2022-09-23T01:52:44.456Z,100625.00
2022-09-23T01:55:25.833Z,100616.00
2022-09-23T01:58:06.967Z,100624.00
2022-09-23T02:00:48.090Z,100626.00
2022-09-23T02:03:29.920Z,100605.00
2022-09-23T02:06:08.471Z,100609.00
2022-09-23T02:08:48.518Z,100624.00
2022-09-23T02:11:22.188Z,100624.00
2022-09-23T02:14:01.429Z,100605.00
2022-09-23T02:16:40.593Z,100612.00
2022-09-23T02:19:22.675Z,100616.00
2022-09-23T02:22:04.311Z,100598.00
2022-09-23T02:24:40.869Z,100599.00
2022-09-23T02:27:24.071Z,100610.00
2022-09-23T02:30:06.638Z,100608.00
2022-09-23T02:32:55.194Z,100602.00
2022-09-23T02:35:37.959Z,100596.00
2022-09-23T02:38:27.808Z,100583.00
2022-09-23T02:41:10.133Z,100591.00
2022-09-23T02:43:53.860Z,100595.00
2022-09-23T02:46:30.080Z,100583.00
2022-09-23T02:49:12.523Z,100577.00
2022-09-23T02:51:47.674Z,100574.00
2022-09-23T02:54:23.822Z,100575.00
2022-09-23T02:56:57.611Z,100574.00
2022-09-23T02:59:33.549Z,100568.00
2022-09-23T03:02:45.885Z,100559.00
2022-09-23T03:05:25.891Z,100561.00
2022-09-23T03:08:26.059Z,100564.00
2022-09-23T03:11:07.133Z,100560.00
2022-09-23T03:13:55.195Z,100556.00
2022-09-23T03:16:42.720Z,100539.00
2022-09-23T03:19:27.824Z,100559.00
2022-09-23T03:22:09.424Z,100556.00
2022-09-23T03:24:48.832Z,100562.00
2022-09-23T03:27:31.228Z,100553.00
2022-09-23T03:30:08.246Z,100556.00
2022-09-23T03:32:47.039Z,100553.00
2022-09-23T03:35:22.800Z,100549.00
2022-09-23T03:38:02.682Z,100551.00
2022-09-23T03:40:43.530Z,100555.00
2022-09-23T03:43:17.575Z,100555.00
2022-09-23T03:45:57.482Z,100524.00
2022-09-23T03:48:30.885Z,100554.00
2022-09-23T03:51:24.722Z,100538.00
2022-09-23T03:53:58.059Z,100539.00
2022-09-23T03:56:32.765Z,100543.00
2022-09-23T03:59:06.087Z,100541.00
2022-09-23T04:01:39.457Z,100535.00
2022-09-23T04:04:18.108Z,100540.00
2022-09-23T04:06:51.655Z,100529.00
2022-09-23T04:09:25.525Z,100541.00
2022-09-23T04:12:00.403Z,100539.00
2022-09-23T04:14:33.700Z,100522.00
2022-09-23T04:17:07.200Z,100525.00
2022-09-23T04:19:40.734Z,100526.00
2022-09-23T04:22:14.208Z,100529.00
2022-09-23T04:24:47.467Z,100530.00
2022-09-23T04:27:22.392Z,100525.00
2022-09-23T04:29:55.704Z,100518.00
2022-09-23T04:32:29.266Z,100522.00
2022-09-23T04:35:02.735Z,100523.00
2022-09-23T04:37:36.050Z,100514.00
2022-09-23T04:40:10.979Z,100512.00
2022-09-23T04:42:45.788Z,100515.00
2022-09-23T04:45:19.011Z,100505.00
2022-09-23T04:47:52.327Z,100498.00
2022-09-23T04:50:26.388Z,100508.00
2022-09-23T04:52:59.671Z,100496.00
2022-09-23T04:55:33.506Z,100500.00
2022-09-23T04:58:09.927Z,100498.00
2022-09-23T05:00:43.437Z,100493.00
2022-09-23T05:03:17.130Z,100491.00
2022-09-23T05:05:50.410Z,100482.00
2022-09-23T05:08:23.705Z,100489.00
2022-09-23T05:10:58.896Z,100496.00
2022-09-23T05:13:34.351Z,100494.00
2022-09-23T05:16:12.095Z,100499.00
2022-09-23T05:18:47.150Z,100473.00
2022-09-23T05:21:23.804Z,100494.00
2022-09-23T05:24:00.787Z,100491.00
2022-09-23T05:26:34.463Z,100487.00
2022-09-23T05:29:09.272Z,100496.00
2022-09-23T05:31:42.680Z,100501.00
2022-09-23T05:34:16.099Z,100499.00
2022-09-23T05:36:49.465Z,100502.00
2022-09-23T05:39:22.732Z,100507.00
2022-09-23T05:41:56.152Z,100497.00
2022-09-23T05:44:30.839Z,100507.00
2022-09-23T05:47:04.220Z,100498.00
2022-09-23T05:49:55.636Z,100507.00
2022-09-23T05:52:31.544Z,100501.00
2022-09-23T05:55:05.496Z,100489.00
2022-09-23T05:57:38.781Z,100501.00
2022-09-23T06:00:14.573Z,100489.00
2022-09-23T06:02:49.826Z,100508.00
2022-09-23T06:05:23.167Z,100507.00
2022-09-23T06:07:56.764Z,100493.00
2022-09-23T06:10:30.158Z,100504.00
2022-09-23T06:13:03.484Z,100502.00
2022-09-23T06:15:39.014Z,100496.00
2022-09-23T06:18:13.550Z,100508.00
2022-09-23T06:20:47.140Z,100509.00
2022-09-23T06:23:23.721Z,100502.00
2022-09-23T06:26:02.260Z,100502.00
2022-09-23T06:28:38.263Z,100506.00
2022-09-23T06:31:15.971Z,100507.00
2022-09-23T06:33:57.075Z,100498.00
2022-09-23T06:36:43.284Z,100481.00
2022-09-23T06:39:17.931Z,100503.00
2022-09-23T06:41:51.417Z,100509.00
2022-09-23T06:44:24.905Z,100505.00
2022-09-23T06:46:59.670Z,100509.00
2022-09-23T06:49:33.717Z,100493.00
2022-09-23T06:52:07.149Z,100505.00
2022-09-23T06:54:40.466Z,100505.00
2022-09-23T06:57:14.077Z,100500.00
2022-09-23T06:59:47.354Z,100504.00
2022-09-23T07:02:22.320Z,100496.00
2022-09-23T07:04:56.550Z,100507.00
2022-09-23T07:07:32.326Z,100499.00
2022-09-23T07:10:07.362Z,100499.00
2022-09-23T07:12:40.857Z,100508.00
2022-09-23T07:15:15.387Z,100511.00
2022-09-23T07:17:50.134Z,100518.00
2022-09-23T07:20:23.498Z,100517.00
2022-09-23T07:22:56.929Z,100512.00
2022-09-23T07:25:31.340Z,100515.00
2022-09-23T07:28:04.899Z,100515.00
2022-09-23T07:30:40.648Z,100520.00
2022-09-23T07:33:30.792Z,100519.00
2022-09-23T07:36:08.501Z,100509.00
2022-09-23T07:38:45.499Z,100519.00
2022-09-23T07:41:26.043Z,100526.00
2022-09-23T07:44:01.140Z,100523.00
2022-09-23T07:46:37.128Z,100525.00
2022-09-23T07:49:11.985Z,100520.00
2022-09-23T07:51:46.194Z,100526.00
2022-09-23T07:54:19.918Z,100525.00
2022-09-23T07:56:53.285Z,100528.00
2022-09-23T07:59:26.997Z,100537.00
2022-09-23T08:02:00.517Z,100525.00
2022-09-23T08:04:35.523Z,100532.00
2022-09-23T08:07:09.125Z,100528.00
2022-09-23T08:09:45.697Z,100523.00
2022-09-23T08:12:20.194Z,100519.00
2022-09-23T08:14:53.477Z,100510.00
2022-09-23T08:17:26.784Z,100531.00
2022-09-23T08:20:01.526Z,100540.00
2022-09-23T08:22:34.789Z,100523.00
2022-09-23T08:25:10.278Z,100533.00
2022-09-23T08:27:43.629Z,100528.00
2022-09-23T08:30:17.212Z,100541.00
2022-09-23T08:32:52.658Z,100535.00
2022-09-23T08:35:27.504Z,100536.00
2022-09-23T08:38:00.980Z,100524.00
2022-09-23T08:40:37.903Z,100525.00
2022-09-23T08:43:22.950Z,100525.00
2022-09-23T08:46:01.627Z,100530.00
2022-09-23T08:48:39.381Z,100524.00
2022-09-23T08:51:21.229Z,100531.00
2022-09-23T08:53:54.783Z,100523.00
2022-09-23T08:56:30.236Z,100523.00
2022-09-23T08:59:15.693Z,100531.00
2022-09-23T09:01:54.818Z,100501.00
2022-09-23T09:04:42.298Z,100526.00
2022-09-23T09:07:36.201Z,100526.00
2022-09-23T09:10:20.571Z,100529.00
2022-09-23T09:13:07.491Z,100523.00
2022-09-23T09:15:55.182Z,100515.00
2022-09-23T09:18:32.368Z,100518.00
2022-09-23T09:21:13.944Z,100515.00
2022-09-23T09:23:56.495Z,100522.00
2022-09-23T09:26:34.950Z,100525.00
2022-09-23T09:29:34.202Z,100522.00
2022-09-23T09:32:37.875Z,100523.00
2022-09-23T09:35:26.558Z,100495.00
2022-09-23T09:38:01.838Z,100526.00
2022-09-23T09:40:46.146Z,100512.00
2022-09-23T09:43:23.252Z,100522.00
2022-09-23T09:46:14.480Z,100517.00
2022-09-23T09:48:57.297Z,100512.00
2022-09-23T09:51:30.898Z,100512.00
2022-09-23T09:54:23.035Z,100514.00
2022-09-23T09:56:58.221Z,100506.00
2022-09-23T09:59:31.964Z,100509.00
2022-09-23T10:02:26.379Z,100515.00
2022-09-23T10:05:03.637Z,100487.00
2022-09-23T10:07:36.969Z,100502.00
2022-09-23T10:10:32.539Z,100500.00
2022-09-23T10:13:17.098Z,100503.00
2022-09-23T10:15:54.687Z,100491.00
2022-09-23T10:18:33.502Z,100500.00
2022-09-23T10:21:14.381Z,100501.00
2022-09-23T10:23:52.534Z,100498.00
2022-09-23T10:26:32.158Z,100498.00
2022-09-23T10:29:25.964Z,100504.00
2022-09-23T10:32:27.482Z,100492.00
2022-09-23T10:35:15.076Z,100500.00
2022-09-23T10:37:51.576Z,100494.00
2022-09-23T10:40:50.050Z,100495.00
2022-09-23T10:44:12.442Z,100493.00
2022-09-23T10:47:03.118Z,100487.00
2022-09-23T10:50:04.849Z,100491.00
2022-09-23T10:52:55.360Z,100485.00
2022-09-23T10:55:49.166Z,100479.00
2022-09-23T10:58:50.502Z,100480.00
2022-09-23T11:01:40.418Z,100480.00
2022-09-23T11:05:03.989Z,100478.00
2022-09-23T11:07:47.060Z,100483.00
2022-09-23T11:11:09.999Z,100477.00
2022-09-23T11:14:04.275Z,100476.00
2022-09-23T11:16:53.299Z,100457.00
2022-09-23T11:19:58.164Z,100464.00
2022-09-23T11:22:53.101Z,100454.00
2022-09-23T11:25:47.237Z,100452.00
2022-09-23T11:28:53.856Z,100453.00
2022-09-23T11:31:40.225Z,100447.00
2022-09-23T11:34:41.737Z,100453.00
2022-09-23T11:37:22.802Z,100437.00
2022-09-23T11:40:03.691Z,100439.00
2022-09-23T11:42:53.489Z,100435.00
2022-09-23T11:45:33.516Z,100440.00
2022-09-23T11:48:14.956Z,100442.00
2022-09-23T11:50:55.105Z,100445.00
2022-09-23T11:53:44.229Z,100443.00
2022-09-23T11:56:34.820Z,100445.00
2022-09-23T11:59:29.767Z,100434.00
2022-09-23T12:02:28.245Z,100427.00
2022-09-23T12:05:12.367Z,100435.00
2022-09-23T12:07:56.730Z,100437.00
2022-09-23T12:10:45.851Z,100435.00
2022-09-23T12:13:30.923Z,100429.00
2022-09-23T12:16:33.703Z,100427.00
2022-09-23T12:19:28.773Z,100424.00
2022-09-23T12:22:24.814Z,100425.00
2022-09-23T12:25:10.315Z,100410.00
2022-09-23T12:27:48.886Z,100422.00
2022-09-23T12:30:29.805Z,100417.00
2022-09-23T12:33:24.676Z,100424.00
2022-09-23T12:36:06.326Z,100419.00
2022-09-23T12:38:47.636Z,100408.00
2022-09-23T12:41:28.241Z,100414.00
2022-09-23T12:44:31.549Z,100412.00
2022-09-23T12:47:41.714Z,100408.00
2022-09-23T12:51:13.592Z,100410.00
2022-09-23T12:54:23.859Z,100405.00
2022-09-23T12:57:06.020Z,100411.00
2022-09-23T13:00:00.486Z,100402.00
2022-09-23T13:02:40.039Z,100404.00
2022-09-23T13:05:39.221Z,100404.00
2022-09-23T13:08:19.322Z,100396.00
2022-09-23T13:10:57.898Z,100395.00
2022-09-23T13:13:40.778Z,100399.00
2022-09-23T13:16:25.527Z,100397.00
2022-09-23T13:19:00.975Z,100397.00
2022-09-23T13:22:14.478Z,100402.00
2022-09-23T13:24:54.520Z,100372.00
2022-09-23T13:27:34.970Z,100389.00
2022-09-23T13:30:25.226Z,100392.00
2022-09-23T13:33:12.706Z,100391.00
2022-09-23T13:35:50.839Z,100384.00
2022-09-23T13:38:29.659Z,100383.00
2022-09-23T13:41:08.978Z,100381.00
2022-09-23T13:43:46.234Z,100394.00
2022-09-23T13:46:23.640Z,100387.00
2022-09-23T13:48:58.471Z,100394.00
2022-09-23T13:51:35.905Z,100388.00
2022-09-23T13:54:29.923Z,100386.00
2022-09-23T13:57:26.047Z,100391.00
2022-09-23T14:00:02.783Z,100386.00
2022-09-23T14:02:44.077Z,100385.00
2022-09-23T14:05:25.260Z,100384.00
2022-09-23T14:07:58.735Z,100387.00
2022-09-23T14:10:32.356Z,100369.00
2022-09-23T14:13:05.886Z,100375.00
2022-09-23T14:15:39.234Z,100370.00
2022-09-23T14:18:20.498Z,100365.00
2022-09-23T14:20:55.321Z,100368.00
2022-09-23T14:23:29.387Z,100359.00
2022-09-23T14:26:03.808Z,100361.00
2022-09-23T14:28:37.196Z,100364.00
2022-09-23T14:31:11.034Z,100361.00
2022-09-23T14:33:44.798Z,100364.00
2022-09-23T14:36:38.079Z,100354.00
2022-09-23T14:39:13.826Z,100347.00
2022-09-23T14:41:47.522Z,100349.00
2022-09-23T14:44:25.109Z,100358.00
2022-09-23T14:47:00.710Z,100347.00
2022-09-23T14:49:34.140Z,100352.00
2022-09-23T14:52:08.931Z,100349.00
2022-09-23T14:54:46.445Z,100345.00
2022-09-23T14:57:28.651Z,100336.00
2022-09-23T15:00:15.350Z,100335.00
2022-09-23T15:03:00.923Z,100335.00
2022-09-23T15:05:43.830Z,100330.00
2022-09-23T15:08:23.040Z,100347.00
2022-09-23T15:10:57.347Z,100335.00
2022-09-23T15:13:34.619Z,100330.00
2022-09-23T15:16:09.083Z,100326.00
2022-09-23T15:18:46.780Z,100332.00
2022-09-23T15:21:22.085Z,100333.00
2022-09-23T15:23:58.785Z,100335.00
2022-09-23T15:26:48.519Z,100326.00
2022-09-23T15:29:21.949Z,100326.00
2022-09-23T15:31:56.044Z,100333.00
2022-09-23T15:34:30.956Z,100330.00
2022-09-23T15:37:04.369Z,100318.00
2022-09-23T15:39:39.302Z,100331.00
2022-09-23T15:42:12.873Z,100323.00
2022-09-23T15:44:46.140Z,100322.00
2022-09-23T15:47:21.752Z,100330.00
2022-09-23T15:49:55.146Z,100322.00
2022-09-23T15:52:28.496Z,100322.00
2022-09-23T15:55:03.362Z,100318.00
2022-09-23T15:57:36.620Z,100316.00
2022-09-23T16:00:13.217Z,100307.00
2022-09-23T16:02:49.678Z,100309.00
2022-09-23T16:05:30.781Z,100310.00
2022-09-23T16:08:09.445Z,100312.00
2022-09-23T16:10:44.687Z,100313.00
2022-09-23T16:13:19.314Z,100310.00
2022-09-23T16:15:52.713Z,100312.00
2022-09-23T16:18:26.096Z,100310.00
2022-09-23T16:20:59.506Z,100312.00
2022-09-23T16:23:38.849Z,100313.00
2022-09-23T16:26:19.830Z,100312.00
2022-09-23T16:28:56.848Z,100317.00
2022-09-23T16:31:31.296Z,100294.00
2022-09-23T16:34:05.089Z,100313.00
2022-09-23T16:36:42.332Z,100311.00
2022-09-23T16:39:15.867Z,100311.00
2022-09-23T16:41:50.501Z,100312.00
2022-09-23T16:44:24.869Z,100315.00
2022-09-23T16:46:58.651Z,100318.00
2022-09-23T16:49:32.123Z,100318.00
2022-09-23T16:52:05.435Z,100319.00
2022-09-23T16:54:38.815Z,100315.00
2022-09-23T16:57:15.792Z,100306.00
2022-09-23T17:00:06.870Z,100312.00
2022-09-23T17:03:05.971Z,100316.00
2022-09-23T17:05:39.602Z,100310.00
2022-09-23T17:08:13.411Z,100317.00
2022-09-23T17:10:57.197Z,100318.00
2022-09-23T17:13:32.423Z,100309.00
2022-09-23T17:16:06.433Z,100314.00
2022-09-23T17:18:39.919Z,100310.00
2022-09-23T17:21:13.601Z,100314.00
2022-09-23T17:23:46.859Z,100305.00
2022-09-23T17:26:23.335Z,100301.00
2022-09-23T17:28:59.425Z,100307.00
2022-09-23T17:31:32.965Z,100311.00
2022-09-23T17:34:06.512Z,100319.00
2022-09-23T17:36:40.493Z,100315.00
2022-09-23T17:39:14.947Z,100309.00
2022-09-23T17:41:48.283Z,100315.00
2022-09-23T17:44:24.203Z,100311.00
2022-09-23T17:46:58.170Z,100310.00
2022-09-23T17:49:35.350Z,100300.00
2022-09-23T17:52:08.751Z,100292.00
2022-09-23T17:54:42.004Z,100284.00
2022-09-23T17:57:15.443Z,100290.00
2022-09-23T17:59:53.560Z,100284.00
2022-09-23T18:02:27.291Z,100291.00
2022-09-23T18:05:00.613Z,100293.00
2022-09-23T18:07:34.043Z,100303.00
2022-09-23T18:10:09.548Z,100301.00
2022-09-23T18:12:42.844Z,100292.00
2022-09-23T18:15:20.171Z,100286.00
2022-09-23T18:17:53.601Z,100284.00
2022-09-23T18:20:26.824Z,100288.00
2022-09-23T18:23:00.418Z,100288.00
2022-09-23T18:25:39.648Z,100288.00
2022-09-23T18:28:13.261Z,100297.00
2022-09-23T18:30:55.838Z,100287.00
2022-09-23T18:33:29.126Z,100285.00
2022-09-23T18:36:03.262Z,100278.00
2022-09-23T18:38:43.441Z,100281.00
2022-09-23T18:41:18.047Z,100282.00
2022-09-23T18:43:51.593Z,100278.00
2022-09-23T18:46:29.398Z,100281.00
2022-09-23T18:49:20.098Z,100286.00
2022-09-23T18:51:56.533Z,100279.00
2022-09-23T18:54:31.462Z,100287.00
2022-09-23T18:57:05.190Z,100285.00
2022-09-23T18:59:38.457Z,100294.00
2022-09-23T19:02:13.823Z,100290.00
2022-09-23T19:04:47.621Z,100293.00
2022-09-23T19:07:20.938Z,100290.00
2022-09-23T19:09:54.437Z,100289.00
2022-09-23T19:12:27.773Z,100292.00
2022-09-23T19:15:01.101Z,100291.00
2022-09-23T19:17:35.781Z,100285.00
2022-09-23T19:20:11.133Z,100300.00
2022-09-23T19:22:48.260Z,100288.00
2022-09-23T19:25:21.615Z,100284.00
2022-09-23T19:27:54.863Z,100294.00
2022-09-23T19:30:28.191Z,100290.00
2022-09-23T19:33:02.988Z,100292.00
2022-09-23T19:35:36.267Z,100297.00
2022-09-23T19:38:09.763Z,100300.00
2022-09-23T19:40:47.704Z,100290.00
2022-09-23T19:43:25.111Z,100288.00
2022-09-23T19:45:58.471Z,100290.00
2022-09-23T19:48:34.172Z,100294.00
2022-09-23T19:51:07.692Z,100289.00
2022-09-23T19:53:45.503Z,100278.00
2022-09-23T19:56:19.145Z,100283.00
2022-09-23T19:58:54.334Z,100285.00
2022-09-23T20:01:29.367Z,100283.00
2022-09-23T20:04:05.803Z,100275.00
2022-09-23T20:06:39.460Z,100278.00
2022-09-23T20:09:16.624Z,100286.00
2022-09-23T20:11:51.004Z,100285.00
2022-09-23T20:14:27.049Z,100277.00
2022-09-23T20:17:01.781Z,100281.00
2022-09-23T20:19:36.349Z,100274.00
2022-09-23T20:22:33.097Z,100274.00
2022-09-23T20:25:13.115Z,100275.00
2022-09-23T20:27:52.109Z,100250.00
2022-09-23T20:30:25.835Z,100262.00
2022-09-23T20:32:59.303Z,100264.00
2022-09-23T20:35:33.904Z,100251.00
2022-09-23T20:38:08.135Z,100269.00
2022-09-23T20:40:41.848Z,100265.00
2022-09-23T20:43:16.097Z,100262.00
2022-09-23T20:45:51.530Z,100259.00
2022-09-23T20:48:25.886Z,100255.00
2022-09-23T20:51:04.300Z,100249.00
2022-09-23T20:53:38.483Z,100254.00
2022-09-23T20:56:11.758Z,100252.00
2022-09-23T20:58:45.068Z,100243.00
2022-09-23T21:01:19.579Z,100249.00
2022-09-23T21:03:55.862Z,100239.00
2022-09-23T21:06:31.308Z,100246.00
2022-09-23T21:09:06.161Z,100245.00
2022-09-23T21:11:39.647Z,100243.00
2022-09-23T21:14:12.954Z,100242.00
2022-09-23T21:16:47.749Z,100243.00
2022-09-23T21:19:21.039Z,100244.00
2022-09-23T21:21:56.130Z,100243.00
2022-09-23T21:27:23.580Z,100239.00
2022-09-23T21:29:59.191Z,100233.00
2022-09-23T21:32:32.618Z,100238.00
2022-09-23T21:35:06.878Z,100233.00
2022-09-23T21:37:41.502Z,100244.00
2022-09-23T21:40:33.385Z,100237.00
2022-09-23T21:43:06.659Z,100231.00
2022-09-23T21:45:39.927Z,100236.00
2022-09-23T21:48:13.357Z,100233.00
2022-09-23T21:50:57.033Z,100230.00
2022-09-23T21:53:36.353Z,100222.00
2022-09-23T21:56:18.085Z,100225.00
2022-09-23T21:58:55.900Z,100219.00
2022-09-23T22:01:33.382Z,100231.00
2022-09-23T22:04:14.089Z,100236.00
2022-09-23T22:06:48.973Z,100234.00
2022-09-23T22:09:23.948Z,100226.00
2022-09-23T22:12:07.798Z,100237.00
2022-09-23T22:14:42.837Z,100224.00
2022-09-23T22:17:16.510Z,100230.00
2022-09-23T22:19:51.169Z,100219.00
2022-09-23T22:22:24.684Z,100233.00
2022-09-23T22:24:59.380Z,100228.00
2022-09-23T22:27:32.617Z,100227.00
2022-09-23T22:30:25.843Z,100218.00
2022-09-23T22:33:01.772Z,100223.00
2022-09-23T22:35:35.023Z,100223.00
2022-09-23T22:38:08.653Z,100216.00
2022-09-23T22:40:45.866Z,100213.00
2022-09-23T22:43:19.366Z,100218.00
2022-09-23T22:45:52.825Z,100214.00
2022-09-23T22:48:26.131Z,100217.00
2022-09-23T22:50:59.424Z,100215.00
2022-09-23T22:53:32.711Z,100219.00
2022-09-23T22:56:07.479Z,100208.00
2022-09-23T22:58:40.777Z,100207.00
2022-09-23T23:01:15.960Z,100209.00
2022-09-23T23:03:49.528Z,100197.00
2022-09-23T23:06:22.890Z,100200.00
2022-09-23T23:08:58.563Z,100196.00
2022-09-23T23:11:33.409Z,100196.00
2022-09-23T23:14:07.018Z,100203.00
2022-09-23T23:16:40.909Z,100204.00
2022-09-23T23:19:19.159Z,100204.00
2022-09-23T23:21:52.635Z,100212.00
2022-09-23T23:24:26.002Z,100214.00
2022-09-23T23:27:00.977Z,100213.00
2022-09-23T23:29:34.217Z,100223.00
2022-09-23T23:32:07.717Z,100210.00
2022-09-23T23:34:41.280Z,100191.00
2022-09-23T23:37:17.710Z,100213.00
2022-09-23T23:39:54.052Z,100213.00
2022-09-23T23:42:28.740Z,100202.00
2022-09-23T23:45:02.294Z,100206.00
2022-09-23T23:47:35.916Z,100205.00
2022-09-23T23:50:10.738Z,100196.00
2022-09-23T23:52:44.047Z,100197.00
2022-09-23T23:55:17.512Z,100199.00
2022-09-23T23:57:54.127Z,100199.00
